createdAt,value
2017-10-19T00:00:28.303Z,14.83
2017-10-19T00:02:57.200Z,14.86
2017-10-19T00:05:25.553Z,14.85
2017-10-19T00:07:53.893Z,14.82
2017-10-19T00:10:22.381Z,14.88
2017-10-19T00:12:51.496Z,14.85
2017-10-19T00:15:19.887Z,14.78
2017-10-19T00:17:48.276Z,14.74
2017-10-19T00:20:16.625Z,14.76
2017-10-19T00:22:44.987Z,14.85
2017-10-19T00:25:14.149Z,14.93
2017-10-19T00:27:42.522Z,14.91
2017-10-19T00:30:10.875Z,14.89
2017-10-19T00:32:39.456Z,14.80
2017-10-19T00:35:07.829Z,14.85
2017-10-19T00:37:36.171Z,14.77
2017-10-19T00:40:04.539Z,14.76
2017-10-19T00:42:32.895Z,14.75
2017-10-19T00:45:01.273Z,14.62
2017-10-19T00:47:29.641Z,14.67
2017-10-19T00:49:58.002Z,14.76
2017-10-19T00:52:26.353Z,14.80
2017-10-19T00:54:55.788Z,14.74
2017-10-19T00:57:24.159Z,14.77
2017-10-19T00:59:52.524Z,14.67
2017-10-19T01:02:20.903Z,14.50
2017-10-19T01:04:50.033Z,14.64
2017-10-19T01:07:18.377Z,14.56
2017-10-19T01:09:46.759Z,14.63
2017-10-19T01:12:15.874Z,14.64
2017-10-19T01:14:44.240Z,14.58
2017-10-19T01:17:12.750Z,14.67
2017-10-19T01:19:41.179Z,14.63
2017-10-19T01:22:09.532Z,14.47
2017-10-19T01:24:37.918Z,14.61
2017-10-19T01:27:06.282Z,14.60
2017-10-19T01:29:34.636Z,14.68
2017-10-19T01:32:03.627Z,14.72
2017-10-19T01:34:31.972Z,14.89
2017-10-19T01:37:00.326Z,14.96
2017-10-19T01:39:28.761Z,15.06
2017-10-19T01:41:57.100Z,15.17
2017-10-19T01:44:25.466Z,15.20
2017-10-19T01:46:53.849Z,15.23
2017-10-19T01:49:22.235Z,15.26
2017-10-19T01:51:50.602Z,15.21
2017-10-19T01:54:18.969Z,15.07
2017-10-19T01:56:47.587Z,15.20
2017-10-19T01:59:15.947Z,15.38
2017-10-19T02:01:44.771Z,15.40
2017-10-19T02:04:13.150Z,15.48
2017-10-19T02:06:42.294Z,15.57
2017-10-19T02:09:10.681Z,15.51
2017-10-19T02:11:39.024Z,15.58
2017-10-19T02:14:07.693Z,15.60
2017-10-19T02:16:36.849Z,15.57
2017-10-19T02:19:05.188Z,15.60
2017-10-19T02:21:33.534Z,15.61
2017-10-19T02:24:02.613Z,15.62
2017-10-19T02:26:31.721Z,15.60
2017-10-19T02:29:00.378Z,15.45
2017-10-19T02:31:29.546Z,15.55
2017-10-19T02:33:57.904Z,15.54
2017-10-19T02:36:27.042Z,15.57
2017-10-19T02:38:55.421Z,15.54
2017-10-19T02:41:24.573Z,15.70
2017-10-19T02:43:52.910Z,15.79
2017-10-19T02:46:22.267Z,15.78
2017-10-19T02:48:51.388Z,15.75
2017-10-19T02:51:19.830Z,15.77
2017-10-19T02:53:48.981Z,15.78
2017-10-19T02:56:17.330Z,15.67
2017-10-19T02:58:45.662Z,15.74
2017-10-19T03:01:14.042Z,15.78
2017-10-19T03:03:42.394Z,15.71
2017-10-19T03:06:10.738Z,15.71
2017-10-19T03:08:39.180Z,15.82
2017-10-19T03:11:07.529Z,15.75
2017-10-19T03:13:36.252Z,15.71
2017-10-19T03:16:04.626Z,15.71
2017-10-19T03:18:32.980Z,15.73
2017-10-19T03:21:01.658Z,15.68
2017-10-19T03:23:30.224Z,15.74
2017-10-19T03:25:58.568Z,15.66
2017-10-19T03:28:27.101Z,15.80
2017-10-19T03:30:56.333Z,15.78
2017-10-19T03:33:24.681Z,15.71
2017-10-19T03:35:53.039Z,15.61
2017-10-19T03:38:21.406Z,15.83
2017-10-19T03:40:50.500Z,15.88
2017-10-19T03:43:19.639Z,15.77
2017-10-19T03:45:48.088Z,15.85
2017-10-19T03:48:16.439Z,15.82
2017-10-19T03:50:44.785Z,15.77
2017-10-19T03:53:13.325Z,15.74
2017-10-19T03:55:42.438Z,15.70
2017-10-19T03:58:10.805Z,15.85
2017-10-19T04:00:39.182Z,15.92
2017-10-19T04:03:07.525Z,15.85
2017-10-19T04:05:35.862Z,15.92
2017-10-19T04:08:04.238Z,15.88
2017-10-19T04:10:32.585Z,15.87
2017-10-19T04:13:01.679Z,15.69
2017-10-19T04:15:30.233Z,15.81
2017-10-19T04:17:59.383Z,15.83
2017-10-19T04:20:27.739Z,15.88
2017-10-19T04:22:56.881Z,15.89
2017-10-19T04:25:25.214Z,15.92
2017-10-19T04:27:54.342Z,15.91
2017-10-19T04:30:22.746Z,15.85
2017-10-19T04:32:51.124Z,15.90
2017-10-19T04:35:19.482Z,15.96
2017-10-19T04:37:48.060Z,16.00
2017-10-19T04:40:16.401Z,15.89
2017-10-19T04:42:44.750Z,15.90
2017-10-19T04:45:13.099Z,16.02
2017-10-19T04:47:41.522Z,15.96
2017-10-19T04:50:09.967Z,15.86
2017-10-19T04:52:38.333Z,15.96
2017-10-19T04:55:06.683Z,16.00
2017-10-19T04:57:36.075Z,16.06
2017-10-19T05:00:05.341Z,16.02
2017-10-19T05:02:33.684Z,15.94
2017-10-19T05:05:02.089Z,15.96
2017-10-19T05:07:30.453Z,16.08
2017-10-19T05:09:58.790Z,16.13
2017-10-19T05:12:27.136Z,16.06
2017-10-19T05:14:55.509Z,16.00
2017-10-19T05:17:23.855Z,15.98
2017-10-19T05:19:52.200Z,16.04
2017-10-19T05:22:21.951Z,15.96
2017-10-19T05:24:51.173Z,16.00
2017-10-19T05:27:19.529Z,16.03
2017-10-19T05:29:48.685Z,15.93
2017-10-19T05:32:17.053Z,15.90
2017-10-19T05:34:45.406Z,16.06
2017-10-19T05:37:13.769Z,16.14
2017-10-19T05:39:42.109Z,15.93
2017-10-19T05:42:10.452Z,15.99
2017-10-19T05:44:39.021Z,15.88
2017-10-19T05:47:07.382Z,15.69
2017-10-19T05:49:35.846Z,15.44
2017-10-19T05:52:04.973Z,15.17
2017-10-19T05:54:33.301Z,15.20
2017-10-19T05:57:01.639Z,15.51
2017-10-19T05:59:30.974Z,15.74
2017-10-19T06:01:59.338Z,15.72
2017-10-19T06:04:27.682Z,15.78
2017-10-19T06:06:56.458Z,15.89
2017-10-19T06:09:24.821Z,15.87
2017-10-19T06:11:53.194Z,15.79
2017-10-19T06:14:21.567Z,15.76
2017-10-19T06:16:49.910Z,15.77
2017-10-19T06:19:18.316Z,15.71
2017-10-19T06:21:46.689Z,15.58
2017-10-19T06:24:15.042Z,15.44
2017-10-19T06:26:43.403Z,15.57
2017-10-19T06:29:12.282Z,15.61
2017-10-19T06:31:40.654Z,15.39
2017-10-19T06:34:09.771Z,15.56
2017-10-19T06:36:38.145Z,15.31
2017-10-19T06:39:06.478Z,15.27
2017-10-19T06:41:35.340Z,15.46
2017-10-19T06:44:03.720Z,15.48
2017-10-19T06:46:32.116Z,15.59
2017-10-19T06:49:00.491Z,15.83
2017-10-19T06:51:29.089Z,15.94
2017-10-19T06:53:57.460Z,16.17
2017-10-19T06:56:25.832Z,16.26
2017-10-19T06:58:54.210Z,16.16
2017-10-19T07:01:22.570Z,16.56
2017-10-19T07:03:50.982Z,16.34
2017-10-19T07:06:19.346Z,16.61
2017-10-19T07:08:48.757Z,16.85
2017-10-19T07:11:17.110Z,16.77
2017-10-19T07:13:45.677Z,16.98
2017-10-19T07:16:14.018Z,17.49
2017-10-19T07:18:42.378Z,17.71
2017-10-19T07:21:10.753Z,17.67
2017-10-19T07:23:39.665Z,17.32
2017-10-19T07:26:08.026Z,17.34
2017-10-19T07:28:36.437Z,17.29
2017-10-19T07:31:05.553Z,17.05
2017-10-19T07:33:33.910Z,17.36
2017-10-19T07:36:02.354Z,17.46
2017-10-19T07:38:30.694Z,17.59
2017-10-19T07:40:59.788Z,18.63
2017-10-19T07:43:28.171Z,18.97
2017-10-19T07:45:56.528Z,18.90
2017-10-19T07:48:25.653Z,19.11
2017-10-19T07:50:54.047Z,19.03
2017-10-19T07:53:22.400Z,19.89
2017-10-19T07:55:51.507Z,20.43
2017-10-19T07:58:19.923Z,20.51
2017-10-19T08:00:48.253Z,21.67
2017-10-19T08:03:17.354Z,21.32
2017-10-19T08:05:45.734Z,20.86
2017-10-19T08:08:14.088Z,20.70
2017-10-19T08:10:42.421Z,20.25
2017-10-19T08:13:11.252Z,21.42
2017-10-19T08:15:39.616Z,21.66
2017-10-19T08:18:07.964Z,21.30
2017-10-19T08:20:36.534Z,20.51
2017-10-19T08:23:04.894Z,20.60
2017-10-19T08:25:33.250Z,20.27
2017-10-19T08:28:01.628Z,20.37
2017-10-19T08:30:30.441Z,19.95
2017-10-19T08:32:59.599Z,20.26
2017-10-19T08:35:28.001Z,20.84
2017-10-19T08:37:56.346Z,21.37
2017-10-19T08:40:24.729Z,22.68
2017-10-19T08:42:53.312Z,23.63
2017-10-19T08:45:21.672Z,24.21
2017-10-19T08:47:50.274Z,24.22
2017-10-19T08:50:19.435Z,24.24
2017-10-19T08:52:47.831Z,24.31
2017-10-19T08:55:16.220Z,23.28
2017-10-19T08:57:44.619Z,24.03
2017-10-19T09:00:12.954Z,25.12
2017-10-19T09:02:41.341Z,25.63
2017-10-19T09:05:10.699Z,25.19
2017-10-19T09:07:39.045Z,24.83
2017-10-19T09:10:07.377Z,24.63
2017-10-19T09:12:36.501Z,24.57
2017-10-19T09:15:04.847Z,24.01
2017-10-19T09:17:33.945Z,24.95
2017-10-19T09:20:03.738Z,25.46
2017-10-19T09:22:32.085Z,25.17
2017-10-19T09:25:00.478Z,24.65
2017-10-19T09:27:29.070Z,26.34
2017-10-19T09:29:57.434Z,27.49
2017-10-19T09:32:25.903Z,27.38
2017-10-19T09:34:54.279Z,27.58
2017-10-19T09:37:22.626Z,26.85
2017-10-19T09:39:50.964Z,27.74
2017-10-19T09:42:19.348Z,26.94
2017-10-19T09:44:47.723Z,26.95
2017-10-19T09:47:16.072Z,26.16
2017-10-19T09:49:44.624Z,27.24
2017-10-19T09:52:12.998Z,28.16
2017-10-19T09:54:42.108Z,28.11
2017-10-19T09:57:10.470Z,27.13
2017-10-19T09:59:38.845Z,28.92
2017-10-19T10:02:07.959Z,29.46
2017-10-19T10:04:36.370Z,28.81
2017-10-19T10:07:04.778Z,27.98
2017-10-19T10:09:33.125Z,28.38
2017-10-19T10:12:01.672Z,28.92
2017-10-19T10:14:30.783Z,29.54
2017-10-19T10:16:59.149Z,28.35
2017-10-19T10:19:27.526Z,28.21
2017-10-19T10:21:56.631Z,27.32
2017-10-19T10:24:24.962Z,25.50
2017-10-19T10:26:53.337Z,23.59
2017-10-19T10:29:22.640Z,22.02
2017-10-19T10:31:51.776Z,20.64
2017-10-19T10:34:21.228Z,19.89
2017-10-19T10:36:49.576Z,19.81
2017-10-19T10:39:18.093Z,19.69
2017-10-19T10:41:46.484Z,19.25
2017-10-19T10:44:14.862Z,19.04
2017-10-19T10:46:43.223Z,18.37
2017-10-19T10:49:11.606Z,18.64
2017-10-19T10:51:39.948Z,18.39
2017-10-19T10:54:08.326Z,18.16
2017-10-19T10:56:36.878Z,18.68
2017-10-19T10:59:05.243Z,18.81
2017-10-19T11:01:33.614Z,18.89
2017-10-19T11:04:01.975Z,18.92
2017-10-19T11:06:30.364Z,18.50
2017-10-19T11:08:58.725Z,18.73
2017-10-19T11:11:27.794Z,18.81
2017-10-19T11:13:56.144Z,19.04
2017-10-19T11:16:24.523Z,18.93
2017-10-19T11:18:53.060Z,19.32
2017-10-19T11:21:21.435Z,19.13
2017-10-19T11:23:49.814Z,18.91
2017-10-19T11:26:18.189Z,19.24
2017-10-19T11:28:47.301Z,19.53
2017-10-19T11:31:15.641Z,19.81
2017-10-19T11:33:44.789Z,20.16
2017-10-19T11:36:13.177Z,20.08
2017-10-19T11:38:41.702Z,20.05
2017-10-19T11:41:11.196Z,21.01
2017-10-19T11:43:40.107Z,21.81
2017-10-19T11:46:09.217Z,21.90
2017-10-19T11:48:37.575Z,21.62
2017-10-19T11:51:06.688Z,22.09
2017-10-19T11:53:35.039Z,22.98
2017-10-19T11:56:03.420Z,23.86
2017-10-19T11:58:33.421Z,24.19
2017-10-19T12:01:01.775Z,25.33
2017-10-19T12:03:30.254Z,25.68
2017-10-19T12:05:58.600Z,27.36
2017-10-19T12:08:26.955Z,27.81
2017-10-19T12:10:56.102Z,27.67
2017-10-19T12:13:25.372Z,27.10
2017-10-19T12:15:53.753Z,27.41
2017-10-19T12:18:22.122Z,26.57
2017-10-19T12:20:50.481Z,26.16
2017-10-19T12:23:18.849Z,25.56
2017-10-19T12:25:47.276Z,25.09
2017-10-19T12:28:15.689Z,25.33
2017-10-19T12:30:44.220Z,25.32
2017-10-19T12:33:13.375Z,25.61
2017-10-19T12:35:41.797Z,25.73
2017-10-19T12:38:11.760Z,24.94
2017-10-19T12:40:40.368Z,25.83
2017-10-19T12:43:08.711Z,26.58
2017-10-19T12:45:37.860Z,26.58
2017-10-19T12:48:06.293Z,25.72
2017-10-19T12:50:34.637Z,25.95
2017-10-19T12:53:04.149Z,25.88
2017-10-19T12:55:33.532Z,25.83
2017-10-19T12:58:01.877Z,26.99
2017-10-19T13:00:30.218Z,25.68
2017-10-19T13:02:58.598Z,25.18
2017-10-19T13:05:26.948Z,24.46
2017-10-19T13:07:55.319Z,24.33
2017-10-19T13:10:24.158Z,24.13
2017-10-19T13:12:52.534Z,24.97
2017-10-19T13:15:20.882Z,25.66
2017-10-19T13:17:50.102Z,25.82
2017-10-19T13:20:19.195Z,25.97
2017-10-19T13:22:47.557Z,25.65
2017-10-19T13:25:15.950Z,25.09
2017-10-19T13:27:45.906Z,25.61
2017-10-19T13:30:14.690Z,24.09
2017-10-19T13:32:43.804Z,24.94
2017-10-19T13:35:12.161Z,23.92
2017-10-19T13:37:40.503Z,24.73
2017-10-19T13:40:08.912Z,25.61
2017-10-19T13:42:38.053Z,26.47
2017-10-19T13:45:06.399Z,26.71
2017-10-19T13:47:35.301Z,26.45
2017-10-19T13:50:04.257Z,25.01
2017-10-19T13:52:32.643Z,24.78
2017-10-19T13:55:01.192Z,24.87
2017-10-19T13:57:30.661Z,25.62
2017-10-19T13:59:59.007Z,25.71
2017-10-19T14:02:27.441Z,25.68
2017-10-19T14:04:55.833Z,25.42
2017-10-19T14:07:24.200Z,25.99
2017-10-19T14:09:52.660Z,25.05
2017-10-19T14:12:21.844Z,25.04
2017-10-19T14:14:50.197Z,23.67
2017-10-19T14:17:18.618Z,23.15
2017-10-19T14:19:46.994Z,22.80
2017-10-19T14:22:15.355Z,22.21
2017-10-19T14:24:43.732Z,22.51
2017-10-19T14:27:12.089Z,22.53
2017-10-19T14:29:41.220Z,22.63
2017-10-19T14:32:09.608Z,22.43
2017-10-19T14:34:38.627Z,21.74
2017-10-19T14:37:07.218Z,21.40
2017-10-19T14:39:36.007Z,21.18
2017-10-19T14:42:04.362Z,20.75
2017-10-19T14:44:32.742Z,20.75
2017-10-19T14:47:01.182Z,20.10
2017-10-19T14:49:29.537Z,20.05
2017-10-19T14:51:57.994Z,19.86
2017-10-19T14:54:26.815Z,19.53
2017-10-19T14:56:55.923Z,19.57
2017-10-19T14:59:24.286Z,19.45
2017-10-19T15:01:52.868Z,19.32
2017-10-19T15:04:22.781Z,19.53
2017-10-19T15:06:51.758Z,19.64
2017-10-19T15:09:20.697Z,19.35
2017-10-19T15:11:49.047Z,19.38
2017-10-19T15:14:18.197Z,19.48
2017-10-19T15:16:46.566Z,19.54
2017-10-19T15:19:14.935Z,19.35
2017-10-19T15:21:43.272Z,19.00
2017-10-19T15:24:11.866Z,19.05
2017-10-19T15:26:40.988Z,19.03
2017-10-19T15:29:09.348Z,18.85
2017-10-19T15:31:37.738Z,18.81
2017-10-19T15:34:06.103Z,18.77
2017-10-19T15:36:34.474Z,18.82
2017-10-19T15:39:02.860Z,18.34
2017-10-19T15:41:32.580Z,18.20
2017-10-19T15:44:01.726Z,18.37
2017-10-19T15:46:30.245Z,18.44
2017-10-19T15:48:59.387Z,18.53
2017-10-19T15:51:27.807Z,18.52
2017-10-19T15:53:56.587Z,18.43
2017-10-19T15:56:24.983Z,18.51
2017-10-19T15:58:53.354Z,18.52
2017-10-19T16:01:21.734Z,18.37
2017-10-19T16:03:50.103Z,18.26
2017-10-19T16:06:18.449Z,18.23
2017-10-19T16:08:47.490Z,18.26
2017-10-19T16:11:15.842Z,17.99
2017-10-19T16:13:44.277Z,17.95
2017-10-19T16:16:13.481Z,17.96
2017-10-19T16:18:42.624Z,17.89
2017-10-19T16:21:11.146Z,17.47
2017-10-19T16:23:40.278Z,17.54
2017-10-19T16:26:08.619Z,17.32
2017-10-19T16:28:37.744Z,17.38
2017-10-19T16:31:06.190Z,17.09
2017-10-19T16:33:34.537Z,17.11
2017-10-19T16:36:02.897Z,17.15
2017-10-19T16:38:31.315Z,16.92
2017-10-19T16:40:59.754Z,16.90
2017-10-19T16:43:28.103Z,16.73
2017-10-19T16:45:57.239Z,16.64
2017-10-19T16:48:25.583Z,16.61
2017-10-19T16:50:54.699Z,16.48
2017-10-19T16:53:23.264Z,16.57
2017-10-19T16:55:51.923Z,16.50
2017-10-19T16:58:20.278Z,16.50
2017-10-19T17:00:48.657Z,16.51
2017-10-19T17:03:17.025Z,16.41
2017-10-19T17:05:45.403Z,16.15
2017-10-19T17:08:13.766Z,15.86
2017-10-19T17:10:42.907Z,15.61
2017-10-19T17:13:11.266Z,15.53
2017-10-19T17:15:39.993Z,15.68
2017-10-19T17:18:08.375Z,15.96
2017-10-19T17:20:37.486Z,16.23
2017-10-19T17:23:06.633Z,15.86
2017-10-19T17:25:35.036Z,15.64
2017-10-19T17:28:03.384Z,15.75
2017-10-19T17:30:31.789Z,15.98
2017-10-19T17:33:00.180Z,15.94
2017-10-19T17:35:28.694Z,16.15
2017-10-19T17:37:57.395Z,16.25
2017-10-19T17:40:25.756Z,16.14
2017-10-19T17:42:54.109Z,15.93
2017-10-19T17:45:23.285Z,15.87
2017-10-19T17:47:53.064Z,16.22
2017-10-19T17:50:21.474Z,16.14
2017-10-19T17:52:49.933Z,16.05
2017-10-19T17:55:18.297Z,15.81
2017-10-19T17:57:47.064Z,15.53
2017-10-19T18:00:15.841Z,15.63
2017-10-19T18:02:44.247Z,15.60
2017-10-19T18:05:12.614Z,15.76
2017-10-19T18:07:41.774Z,15.64
2017-10-19T18:10:10.143Z,15.59
2017-10-19T18:12:38.493Z,15.64
2017-10-19T18:15:06.871Z,15.56
2017-10-19T18:17:35.319Z,15.79
2017-10-19T18:20:04.471Z,15.73
2017-10-19T18:22:33.343Z,15.51
2017-10-19T18:25:01.716Z,15.45
2017-10-19T18:27:30.350Z,15.49
2017-10-19T18:29:59.542Z,15.35
2017-10-19T18:32:27.913Z,15.51
2017-10-19T18:34:57.077Z,15.51
2017-10-19T18:37:26.178Z,15.53
2017-10-19T18:39:54.966Z,15.71
2017-10-19T18:42:23.337Z,15.72
2017-10-19T18:44:52.810Z,15.66
2017-10-19T18:47:21.927Z,15.78
2017-10-19T18:49:50.360Z,15.80
2017-10-19T18:52:18.976Z,15.68
2017-10-19T18:54:47.326Z,15.94
2017-10-19T18:57:15.693Z,15.77
2017-10-19T18:59:44.089Z,15.75
2017-10-19T19:02:12.467Z,15.73
2017-10-19T19:04:40.836Z,15.87
2017-10-19T19:07:10.128Z,15.80
2017-10-19T19:09:38.537Z,15.54
2017-10-19T19:12:06.901Z,15.52
2017-10-19T19:14:35.894Z,15.74
2017-10-19T19:17:04.279Z,15.67
2017-10-19T19:19:32.678Z,15.87
2017-10-19T19:22:01.101Z,15.75
2017-10-19T19:24:29.458Z,15.83
2017-10-19T19:26:58.576Z,15.55
2017-10-19T19:29:27.203Z,15.51
2017-10-19T19:31:56.587Z,15.31
2017-10-19T19:34:24.941Z,15.39
2017-10-19T19:36:53.352Z,15.30
2017-10-19T19:39:21.712Z,15.28
2017-10-19T19:41:50.138Z,15.20
2017-10-19T19:44:19.347Z,15.43
2017-10-19T19:46:48.483Z,15.47
2017-10-19T19:49:16.888Z,15.69
2017-10-19T19:51:45.380Z,15.77
2017-10-19T19:54:14.615Z,15.75
2017-10-19T19:56:44.167Z,15.52
2017-10-19T19:59:12.606Z,15.51
2017-10-19T20:01:40.967Z,15.59
2017-10-19T20:04:09.307Z,15.57
2017-10-19T20:06:37.696Z,15.39
2017-10-19T20:09:06.083Z,15.48
2017-10-19T20:11:34.494Z,15.37
2017-10-19T20:14:03.603Z,15.14
2017-10-19T20:16:31.979Z,15.14
2017-10-19T20:19:00.386Z,15.29
2017-10-19T20:21:29.714Z,15.25
2017-10-19T20:23:58.183Z,15.55
2017-10-19T20:26:26.546Z,15.66
2017-10-19T20:28:55.334Z,15.45
2017-10-19T20:31:23.742Z,15.57
2017-10-19T20:33:52.762Z,15.68
2017-10-19T20:36:22.116Z,15.75
2017-10-19T20:38:50.595Z,15.64
2017-10-19T20:41:18.953Z,15.72
2017-10-19T20:43:47.337Z,15.77
2017-10-19T20:46:15.737Z,15.54
2017-10-19T20:48:44.160Z,15.32
2017-10-19T20:51:12.616Z,15.30
2017-10-19T20:53:40.959Z,15.30
2017-10-19T20:56:09.506Z,15.18
2017-10-19T20:58:38.111Z,15.50
2017-10-19T21:01:06.601Z,15.56
2017-10-19T21:03:34.961Z,15.46
2017-10-19T21:06:03.369Z,15.30
2017-10-19T21:08:31.746Z,15.49
2017-10-19T21:11:00.120Z,15.05
2017-10-19T21:13:28.781Z,15.18
2017-10-19T21:15:57.159Z,15.12
2017-10-19T21:18:26.283Z,15.24
2017-10-19T21:20:54.890Z,15.15
2017-10-19T21:23:23.248Z,15.37
2017-10-19T21:25:51.620Z,15.31
2017-10-19T21:28:20.770Z,15.30
2017-10-19T21:30:49.174Z,15.19
2017-10-19T21:33:17.570Z,14.87
2017-10-19T21:35:45.990Z,14.80
2017-10-19T21:38:14.358Z,14.94
2017-10-19T21:40:42.721Z,15.13
2017-10-19T21:43:12.206Z,15.29
2017-10-19T21:45:40.570Z,15.44
2017-10-19T21:48:08.957Z,15.66
2017-10-19T21:50:37.351Z,15.82
2017-10-19T21:53:06.477Z,15.92
2017-10-19T21:55:36.530Z,15.52
2017-10-19T21:58:04.922Z,15.30
2017-10-19T22:00:33.287Z,15.44
2017-10-19T22:03:01.739Z,15.50
2017-10-19T22:05:30.268Z,15.31
2017-10-19T22:07:58.636Z,15.18
2017-10-19T22:10:26.990Z,15.26
2017-10-19T22:12:55.382Z,15.56
2017-10-19T22:15:23.765Z,15.50
2017-10-19T22:17:52.137Z,15.38
2017-10-19T22:20:20.527Z,15.60
2017-10-19T22:22:48.874Z,15.51
2017-10-19T22:25:17.728Z,15.46
2017-10-19T22:27:47.026Z,15.31
2017-10-19T22:30:16.141Z,15.22
2017-10-19T22:32:45.372Z,15.31
2017-10-19T22:35:13.746Z,15.39
2017-10-19T22:37:42.105Z,15.33
2017-10-19T22:40:10.468Z,15.16
2017-10-19T22:42:39.621Z,15.22
2017-10-19T22:45:08.010Z,15.21
2017-10-19T22:47:36.422Z,15.25
2017-10-19T22:50:04.873Z,15.32
2017-10-19T22:52:33.247Z,15.20
2017-10-19T22:55:01.624Z,15.38
2017-10-19T22:57:30.281Z,15.51
2017-10-19T22:59:58.627Z,15.13
2017-10-19T23:02:26.992Z,15.21
2017-10-19T23:04:55.370Z,15.19
2017-10-19T23:07:24.408Z,15.30
2017-10-19T23:09:52.782Z,15.06
2017-10-19T23:12:21.198Z,14.74
2017-10-19T23:14:49.551Z,14.64
2017-10-19T23:17:17.924Z,14.70
2017-10-19T23:19:46.491Z,14.68
2017-10-19T23:22:14.846Z,14.89
2017-10-19T23:24:43.300Z,15.13
2017-10-19T23:27:12.564Z,15.17
2017-10-19T23:29:40.927Z,14.96
2017-10-19T23:32:10.086Z,15.03
2017-10-19T23:34:38.545Z,15.19
2017-10-19T23:37:06.894Z,15.19
2017-10-19T23:39:35.899Z,14.78
2017-10-19T23:42:04.263Z,14.93
2017-10-19T23:44:33.378Z,15.04
2017-10-19T23:47:01.754Z,15.11
2017-10-19T23:49:30.133Z,15.08
2017-10-19T23:51:58.476Z,15.18
2017-10-19T23:54:27.602Z,15.30
2017-10-19T23:56:56.181Z,15.40
2017-10-19T23:59:25.420Z,15.32
